Time;durP1;ratioP1;P1;durP2;ratioP2;P2;SDS_P1;SDS_P2;PMS_P1;PMS_P2;Temp;Humidity;BMP_temperature;BMP_pressure;BME280_temperature;BME280_humidity;BME280_pressure;Samples;Min_cycle;Max_cycle;Signal;HPM_P1;HPM_P2
2022/02/18 00:00:05;;;;;;;;;;;22.70;33.40;;;;;;5091264;28;20104;-65
2022/02/18 00:02:32;;;;;;;;;;;22.70;33.40;;;;;;5088687;28;19998;-65
2022/02/18 00:04:59;;;;;;;;;;;22.70;33.40;;;;;;5090691;28;20016;-65
2022/02/18 00:07:28;;;;;;;;;;;22.70;34.00;;;;;;5088453;28;19967;-65
2022/02/18 00:09:55;;;;;;;;;;;22.70;33.40;;;;;;5090945;28;20098;-65
2022/02/18 00:12:22;;;;;;;;;;;22.70;33.40;;;;;;5087621;28;20297;-64
2022/02/18 00:14:53;;;;;;;;;;;22.70;33.40;;;;;;5089937;28;20199;-65
2022/02/18 00:17:20;;;;;;;;;;;22.70;33.40;;;;;;5088314;28;19963;-64
2022/02/18 00:19:47;;;;;;;;;;;22.70;33.50;;;;;;5072852;28;20129;-64
2022/02/18 00:22:14;;;;;;;;;;;22.70;33.50;;;;;;5087886;28;20580;-64
2022/02/18 00:24:41;;;;;;;;;;;22.70;33.50;;;;;;5090641;28;19924;-65
2022/02/18 00:27:08;;;;;;;;;;;22.70;33.50;;;;;;5088411;28;20175;-64
2022/02/18 00:29:34;;;;;;;;;;;22.70;33.50;;;;;;5090153;28;20040;-65
2022/02/18 00:32:07;;;;;;;;;;;22.70;33.50;;;;;;5088107;28;19975;-65
2022/02/18 00:34:35;;;;;;;;;;;22.70;33.50;;;;;;5090117;28;20369;-65
2022/02/18 00:37:02;;;;;;;;;;;22.70;33.40;;;;;;5088296;28;19931;-65
2022/02/18 00:39:29;;;;;;;;;;;22.70;33.40;;;;;;5089983;28;19927;-65
2022/02/18 00:41:56;;;;;;;;;;;22.70;33.50;;;;;;5087917;28;19928;-65
2022/02/18 00:44:23;;;;;;;;;;;22.70;33.50;;;;;;5089534;28;20050;-65
2022/02/18 00:46:51;;;;;;;;;;;22.70;33.50;;;;;;5088798;28;20323;-65
2022/02/18 00:49:19;;;;;;;;;;;22.80;33.50;;;;;;5089141;28;19927;-65
2022/02/18 00:51:46;;;;;;;;;;;22.80;33.50;;;;;;5088035;28;19928;-64
2022/02/18 00:57:17;;;;;;;;;;;22.70;33.40;;;;;;5087496;28;19959;-65
2022/02/18 00:59:44;;;;;;;;;;;22.70;33.40;;;;;;5089981;28;20046;-65
2022/02/18 01:02:11;;;;;;;;;;;22.80;33.50;;;;;;5069990;28;19924;-64
2022/02/18 01:04:38;;;;;;;;;;;22.70;33.50;;;;;;5089271;28;19925;-64
2022/02/18 01:07:05;;;;;;;;;;;22.70;33.50;;;;;;5087303;28;19985;-64
2022/02/18 01:09:33;;;;;;;;;;;22.70;33.50;;;;;;5071050;28;19967;-65
2022/02/18 01:12:02;;;;;;;;;;;22.70;33.50;;;;;;5069840;28;20392;-65
2022/02/18 01:14:29;;;;;;;;;;;22.70;33.50;;;;;;5089309;28;19923;-64
2022/02/18 01:16:56;;;;;;;;;;;22.70;33.50;;;;;;5088038;28;19960;-64
2022/02/18 01:22:28;;;;;;;;;;;22.70;33.60;;;;;;5086965;28;20342;-64
2022/02/18 01:24:55;;;;;;;;;;;22.70;33.60;;;;;;5071544;28;19935;-64
2022/02/18 01:27:22;;;;;;;;;;;22.70;33.60;;;;;;5087421;28;19924;-65
2022/02/18 01:29:49;;;;;;;;;;;22.70;33.60;;;;;;5088979;28;19924;-65
2022/02/18 01:32:16;;;;;;;;;;;22.60;33.50;;;;;;5068079;28;20327;-64
2022/02/18 01:34:43;;;;;;;;;;;22.60;33.50;;;;;;5088194;28;19924;-65
2022/02/18 01:37:10;;;;;;;;;;;22.70;33.60;;;;;;5086494;28;19954;-65
2022/02/18 01:39:37;;;;;;;;;;;22.70;33.60;;;;;;5088650;28;20407;-64
2022/02/18 01:42:04;;;;;;;;;;;22.60;33.50;;;;;;5086784;28;19989;-66
2022/02/18 01:44:50;;;;;;;;;;;22.70;33.60;;;;;;5088998;28;19965;-65
2022/02/18 01:47:19;;;;;;;;;;;22.60;33.50;;;;;;5087065;28;19959;-65
2022/02/18 01:49:48;;;;;;;;;;;22.60;33.60;;;;;;5089143;28;19924;-64
2022/02/18 01:52:16;;;;;;;;;;;22.60;33.60;;;;;;5087052;28;19924;-64
2022/02/18 01:54:43;;;;;;;;;;;22.60;33.60;;;;;;5088725;28;19959;-64
2022/02/18 01:57:11;;;;;;;;;;;22.60;33.60;;;;;;5086456;28;19924;-65
2022/02/18 01:59:38;;;;;;;;;;;22.60;33.60;;;;;;5088875;28;19924;-64
2022/02/18 02:02:05;;;;;;;;;;;22.60;33.80;;;;;;5086852;28;20220;-65
2022/02/18 02:04:32;;;;;;;;;;;22.60;33.60;;;;;;5088731;28;20406;-65
2022/02/18 02:07:02;;;;;;;;;;;22.60;33.60;;;;;;5068811;28;19928;-65
2022/02/18 02:09:29;;;;;;;;;;;22.60;33.60;;;;;;5088140;28;19981;-64
2022/02/18 02:11:56;;;;;;;;;;;22.60;33.60;;;;;;5085832;28;20004;-65
2022/02/18 02:14:23;;;;;;;;;;;22.60;33.60;;;;;;5088580;28;19966;-64
2022/02/18 02:16:50;;;;;;;;;;;22.60;33.60;;;;;;5086518;28;19969;-65
2022/02/18 02:22:27;;;;;;;;;;;22.60;33.60;;;;;;5086550;28;20013;-64
2022/02/18 02:24:54;;;;;;;;;;;22.60;33.60;;;;;;5088521;28;19924;-64
2022/02/18 02:27:22;;;;;;;;;;;22.60;33.60;;;;;;5086320;28;19963;-65
2022/02/18 02:29:49;;;;;;;;;;;22.60;33.60;;;;;;5088517;28;19978;-65
2022/02/18 02:32:16;;;;;;;;;;;22.60;33.60;;;;;;5085398;28;19928;-65
2022/02/18 02:34:44;;;;;;;;;;;22.50;33.60;;;;;;5088300;28;19924;-65
2022/02/18 02:37:11;;;;;;;;;;;22.50;33.60;;;;;;5085263;28;19963;-64
2022/02/18 02:39:38;;;;;;;;;;;22.50;33.60;;;;;;5088830;28;19977;-65
2022/02/18 02:42:06;;;;;;;;;;;22.50;33.60;;;;;;5085946;28;19924;-64
2022/02/18 02:44:34;;;;;;;;;;;22.50;33.60;;;;;;5088332;28;19924;-64
2022/02/18 02:47:02;;;;;;;;;;;22.50;33.60;;;;;;5068000;28;20231;-64
2022/02/18 02:49:29;;;;;;;;;;;22.50;33.60;;;;;;5087234;28;19928;-64
2022/02/18 02:51:56;;;;;;;;;;;22.50;33.60;;;;;;5085647;28;19967;-65
2022/02/18 02:57:27;;;;;;;;;;;22.50;33.70;;;;;;5085831;28;19959;-64
2022/02/18 02:59:54;;;;;;;;;;;22.50;33.60;;;;;;5088221;28;19932;-64
2022/02/18 03:02:21;;;;;;;;;;;22.50;33.60;;;;;;5067066;28;20163;-65
2022/02/18 03:04:48;;;;;;;;;;;22.50;33.60;;;;;;5088220;28;19924;-64
2022/02/18 03:07:18;;;;;;;;;;;22.50;33.70;;;;;;5085575;28;19924;-65
2022/02/18 03:09:49;;;;;;;;;;;22.40;33.60;;;;;;5087886;28;19924;-64
2022/02/18 03:12:16;;;;;;;;;;;22.40;33.60;;;;;;5085511;28;19928;-64
2022/02/18 03:14:44;;;;;;;;;;;22.40;33.60;;;;;;5087795;28;19924;-64
2022/02/18 03:17:11;;;;;;;;;;;22.40;33.60;;;;;;5085666;28;19960;-64
2022/02/18 03:19:47;;;;;;;;;;;22.40;33.70;;;;;;5053285;28;19924;-65
2022/02/18 03:22:16;;;;;;;;;;;22.40;33.60;;;;;;5085311;28;20550;-64
2022/02/18 03:24:43;;;;;;;;;;;22.50;33.70;;;;;;5088300;28;19959;-65
2022/02/18 03:27:11;;;;;;;;;;;22.40;33.60;;;;;;5085197;28;20365;-64
2022/02/18 03:29:38;;;;;;;;;;;22.40;33.60;;;;;;5088179;28;19924;-64
2022/02/18 03:32:05;;;;;;;;;;;22.50;33.70;;;;;;5084817;28;20168;-65
2022/02/18 03:34:34;;;;;;;;;;;22.50;33.70;;;;;;5087604;28;19967;-65
2022/02/18 03:37:01;;;;;;;;;;;22.40;33.60;;;;;;5087979;28;20010;-65
2022/02/18 03:39:28;;;;;;;;;;;22.50;33.60;;;;;;5087572;28;19977;-65
2022/02/18 03:41:55;;;;;;;;;;;22.40;33.50;;;;;;5085764;28;19971;-65
2022/02/18 03:44:54;;;;;;;;;;;22.40;33.50;;;;;;5087678;28;19924;-64
2022/02/18 03:47:23;;;;;;;;;;;22.50;33.60;;;;;;5085933;28;19985;-64
2022/02/18 03:49:50;;;;;;;;;;;22.40;33.50;;;;;;5091728;28;20340;-64
2022/02/18 03:52:18;;;;;;;;;;;22.40;33.60;;;;;;5088543;28;19963;-65
2022/02/18 03:54:45;;;;;;;;;;;22.40;33.60;;;;;;5091218;28;19969;-64
2022/02/18 03:57:12;;;;;;;;;;;22.40;33.60;;;;;;5088753;28;19924;-65
2022/02/18 03:59:39;;;;;;;;;;;22.40;33.60;;;;;;5091167;28;20390;-64
2022/02/18 04:02:06;;;;;;;;;;;22.40;33.70;;;;;;5088585;28;20347;-64
2022/02/18 04:04:33;;;;;;;;;;;22.40;33.70;;;;;;5090650;28;20080;-65
2022/02/18 04:07:00;;;;;;;;;;;22.40;33.80;;;;;;5088925;28;19924;-65
2022/02/18 04:09:27;;;;;;;;;;;22.40;33.80;;;;;;5090274;28;19928;-64
2022/02/18 04:11:54;;;;;;;;;;;22.40;33.80;;;;;;5089264;28;19970;-64
2022/02/18 04:14:21;;;;;;;;;;;22.40;33.80;;;;;;5090215;28;19964;-64
2022/02/18 04:16:48;;;;;;;;;;;22.30;33.80;;;;;;5089454;28;19963;-64
2022/02/18 04:22:39;;;;;;;;;;;22.30;33.80;;;;;;5087449;28;19975;-64
2022/02/18 04:25:07;;;;;;;;;;;22.40;33.90;;;;;;5090047;28;19924;-65
2022/02/18 04:27:34;;;;;;;;;;;22.30;33.90;;;;;;5087384;28;19997;-65
2022/02/18 04:30:03;;;;;;;;;;;22.30;33.90;;;;;;5090293;28;19924;-64
2022/02/18 04:32:30;;;;;;;;;;;22.30;33.90;;;;;;5087592;28;20427;-68
2022/02/18 04:34:57;;;;;;;;;;;22.30;33.90;;;;;;5090509;28;20379;-65
2022/02/18 04:37:24;;;;;;;;;;;22.30;34.00;;;;;;5087841;28;19985;-65
2022/02/18 04:39:51;;;;;;;;;;;22.30;34.00;;;;;;5089712;28;19928;-65
2022/02/18 04:42:20;;;;;;;;;;;22.30;34.00;;;;;;5087777;28;20201;-65
2022/02/18 04:44:47;;;;;;;;;;;22.30;34.00;;;;;;5090355;28;19967;-64
2022/02/18 04:47:14;;;;;;;;;;;22.30;34.00;;;;;;5069789;28;20137;-65
2022/02/18 04:49:41;;;;;;;;;;;22.30;34.10;;;;;;5089609;28;20043;-65
2022/02/18 04:52:13;;;;;;;;;;;22.30;34.10;;;;;;5087513;28;19981;-65
2022/02/18 04:54:40;;;;;;;;;;;22.30;34.10;;;;;;5090030;28;19959;-65
2022/02/18 04:57:07;;;;;;;;;;;22.30;34.10;;;;;;5087166;28;20142;-65
2022/02/18 04:59:34;;;;;;;;;;;22.30;34.00;;;;;;5089382;28;19931;-65
2022/02/18 05:02:01;;;;;;;;;;;22.30;34.10;;;;;;5087549;28;20270;-65
2022/02/18 05:07:13;;;;;;;;;;;22.30;34.10;;;;;;5087440;28;19977;-65
2022/02/18 05:09:40;;;;;;;;;;;22.30;34.00;;;;;;5089226;28;20357;-65
2022/02/18 05:12:08;;;;;;;;;;;22.30;34.00;;;;;;5087567;28;19931;-65
2022/02/18 05:14:35;;;;;;;;;;;22.30;34.00;;;;;;5089198;28;19928;-64
2022/02/18 05:17:02;;;;;;;;;;;22.30;34.00;;;;;;5087413;28;19924;-65
2022/02/18 05:19:29;;;;;;;;;;;22.30;34.10;;;;;;5088978;28;20377;-64
2022/02/18 05:21:56;;;;;;;;;;;22.30;34.00;;;;;;5087471;28;19924;-65
2022/02/18 05:24:23;;;;;;;;;;;22.30;34.10;;;;;;5088830;28;19971;-65
2022/02/18 05:26:50;;;;;;;;;;;22.30;34.10;;;;;;5087001;28;19932;-65
2022/02/18 05:32:21;;;;;;;;;;;22.30;34.10;;;;;;5082908;28;20023;-65
2022/02/18 05:34:49;;;;;;;;;;;22.20;34.00;;;;;;5089012;28;19928;-65
2022/02/18 05:37:16;;;;;;;;;;;22.30;34.10;;;;;;5086420;28;19923;-64
2022/02/18 05:39:43;;;;;;;;;;;22.20;34.00;;;;;;5087584;28;19973;-65
2022/02/18 05:42:10;;;;;;;;;;;22.30;34.10;;;;;;5087221;28;19959;-65
2022/02/18 05:44:37;;;;;;;;;;;22.20;34.00;;;;;;5088518;28;20338;-65
2022/02/18 05:47:04;;;;;;;;;;;22.20;34.00;;;;;;5086190;28;20014;-65
2022/02/18 05:49:31;;;;;;;;;;;22.20;34.00;;;;;;5087789;28;20361;-65
2022/02/18 05:51:58;;;;;;;;;;;22.20;34.00;;;;;;5083670;28;19977;-65
2022/02/18 05:57:30;;;;;;;;;;;22.20;34.00;;;;;;5085499;28;20481;-64
2022/02/18 05:59:57;;;;;;;;;;;22.20;34.00;;;;;;5087556;28;19928;-65
2022/02/18 06:02:24;;;;;;;;;;;22.20;34.00;;;;;;5085372;28;19972;-65
2022/02/18 06:04:51;;;;;;;;;;;22.20;34.00;;;;;;5101331;28;20349;-65
2022/02/18 06:07:18;;;;;;;;;;;22.20;34.00;;;;;;5087422;28;20432;-65
2022/02/18 06:09:45;;;;;;;;;;;22.20;33.80;;;;;;5086161;28;19971;-65
2022/02/18 06:12:12;;;;;;;;;;;22.20;33.70;;;;;;5081339;28;20007;-65
2022/02/18 06:14:39;;;;;;;;;;;22.20;33.70;;;;;;5100428;28;19974;-64
2022/02/18 06:17:08;;;;;;;;;;;22.20;33.60;;;;;;5080597;28;19997;-65
2022/02/18 06:19:35;;;;;;;;;;;22.20;33.50;;;;;;5082217;28;20022;-65
2022/02/18 06:22:03;;;;;;;;;;;22.20;33.50;;;;;;5076443;28;20325;-67
2022/02/18 06:24:30;;;;;;;;;;;22.30;33.60;;;;;;5086558;28;19924;-65
2022/02/18 06:26:57;;;;;;;;;;;22.30;33.50;;;;;;5084875;28;19935;-63
2022/02/18 06:29:49;;;;;;;;;;;22.30;33.40;;;;;;5084018;28;20140;-65
2022/02/18 06:32:16;;;;;;;;;;;22.40;33.40;;;;;;5081209;28;20420;-64
2022/02/18 06:34:43;;;;;;;;;;;22.40;33.20;;;;;;5085248;28;19981;-64
2022/02/18 06:37:10;;;;;;;;;;;22.50;33.20;;;;;;5081706;28;19959;-64
2022/02/18 06:39:37;;;;;;;;;;;22.50;33.40;;;;;;5072946;28;20285;-65
2022/02/18 06:42:06;;;;;;;;;;;22.60;33.90;;;;;;5075098;28;19993;-65
2022/02/18 06:44:33;;;;;;;;;;;22.70;34.10;;;;;;5085247;28;19999;-65
2022/02/18 06:47:00;;;;;;;;;;;22.70;34.10;;;;;;5067242;28;19932;-65
2022/02/18 06:49:27;;;;;;;;;;;22.80;34.10;;;;;;5080441;28;19973;-64
2022/02/18 06:51:58;;;;;;;;;;;22.90;33.90;;;;;;5060206;28;20414;-65
2022/02/18 06:57:48;;;;;;;;;;;23.00;33.70;;;;;;5086087;28;20031;-66
2022/02/18 07:00:15;;;;;;;;;;;23.10;33.70;;;;;;5066700;28;20376;-66
2022/02/18 07:02:43;;;;;;;;;;;23.20;33.60;;;;;;5078768;28;20035;-67
2022/02/18 07:05:11;;;;;;;;;;;23.20;33.70;;;;;;5087639;28;19971;-66
2022/02/18 07:07:39;;;;;;;;;;;23.30;33.80;;;;;;5081450;28;19932;-65
2022/02/18 07:10:13;;;;;;;;;;;23.40;33.50;;;;;;5065388;28;19925;-69
2022/02/18 07:12:41;;;;;;;;;;;23.50;33.60;;;;;;5074793;28;19924;-69
2022/02/18 07:15:09;;;;;;;;;;;23.60;33.50;;;;;;5085840;28;19924;-67
2022/02/18 07:17:37;;;;;;;;;;;23.60;33.20;;;;;;5085566;28;20054;-67
2022/02/18 07:20:06;;;;;;;;;;;23.60;33.00;;;;;;5080110;28;20422;-66
2022/02/18 07:22:36;;;;;;;;;;;23.70;33.00;;;;;;5099790;28;19932;-66
2022/02/18 07:25:10;;;;;;;;;;;23.70;33.00;;;;;;5089836;28;19924;-66
2022/02/18 07:27:37;;;;;;;;;;;23.80;33.20;;;;;;5092045;28;20073;-69
2022/02/18 07:30:05;;;;;;;;;;;23.80;33.40;;;;;;5091512;28;19969;-71
2022/02/18 07:32:32;;;;;;;;;;;23.80;33.50;;;;;;5090767;28;19932;-68
2022/02/18 07:34:59;;;;;;;;;;;23.80;33.50;;;;;;5088558;28;19979;-70
2022/02/18 07:37:26;;;;;;;;;;;23.80;33.60;;;;;;5091837;28;20450;-71
2022/02/18 07:39:53;;;;;;;;;;;23.90;33.60;;;;;;5087075;28;19985;-64
2022/02/18 07:42:20;;;;;;;;;;;23.90;33.60;;;;;;5089881;28;19970;-70
2022/02/18 07:44:47;;;;;;;;;;;23.90;33.60;;;;;;5089078;28;19928;-65
2022/02/18 07:47:16;;;;;;;;;;;23.90;33.50;;;;;;5090785;28;19928;-66
2022/02/18 07:49:50;;;;;;;;;;;23.90;33.40;;;;;;5091954;28;19931;-66
2022/02/18 07:52:20;;;;;;;;;;;23.90;33.40;;;;;;5090332;28;20440;-71
2022/02/18 07:54:48;;;;;;;;;;;23.90;33.30;;;;;;5088460;28;19959;-65
2022/02/18 07:57:15;;;;;;;;;;;23.90;33.10;;;;;;5077464;28;19936;-68
2022/02/18 07:59:42;;;;;;;;;;;24.00;33.70;;;;;;5085763;28;20281;-73
2022/02/18 08:02:09;;;;;;;;;;;23.90;33.00;;;;;;5088906;28;19928;-72
2022/02/18 08:04:36;;;;;;;;;;;24.00;33.00;;;;;;5071540;28;19924;-70
2022/02/18 08:07:09;;;;;;;;;;;23.90;32.90;;;;;;5081872;28;19985;-70
2022/02/18 08:09:36;;;;;;;;;;;24.00;33.00;;;;;;5073163;28;19951;-70
2022/02/18 08:12:04;;;;;;;;;;;24.00;33.00;;;;;;5070140;28;19925;-72
2022/02/18 08:14:32;;;;;;;;;;;24.00;33.00;;;;;;5071276;28;20404;-68
2022/02/18 08:16:59;;;;;;;;;;;24.00;33.00;;;;;;5075684;28;19932;-69
2022/02/18 08:19:26;;;;;;;;;;;24.00;33.00;;;;;;5083439;28;19928;-69
2022/02/18 08:21:55;;;;;;;;;;;24.10;33.00;;;;;;5090461;28;19924;-66
2022/02/18 08:24:22;;;;;;;;;;;24.10;33.00;;;;;;5088520;28;19924;-67
2022/02/18 08:26:50;;;;;;;;;;;24.10;33.00;;;;;;5082997;28;20421;-68
2022/02/18 08:29:17;;;;;;;;;;;24.10;32.90;;;;;;5084731;28;19928;-68
2022/02/18 08:31:44;;;;;;;;;;;24.10;32.90;;;;;;5085136;28;19977;-69
2022/02/18 08:34:11;;;;;;;;;;;24.10;32.90;;;;;;5085168;28;19924;-69
2022/02/18 08:36:38;;;;;;;;;;;24.20;33.00;;;;;;5088703;28;20130;-67
2022/02/18 08:39:07;;;;;;;;;;;24.20;32.90;;;;;;5080781;28;19924;-68
2022/02/18 08:41:34;;;;;;;;;;;24.20;32.80;;;;;;5069992;28;20283;-68
2022/02/18 08:44:01;;;;;;;;;;;24.30;32.80;;;;;;5068336;28;20001;-68
2022/02/18 08:46:29;;;;;;;;;;;24.30;32.70;;;;;;5064321;28;20295;-67
2022/02/18 08:48:57;;;;;;;;;;;24.30;32.60;;;;;;5082147;28;19947;-68
2022/02/18 08:51:25;;;;;;;;;;;24.30;32.60;;;;;;5109712;28;20293;-68
2022/02/18 08:53:52;;;;;;;;;;;24.30;32.60;;;;;;5110325;28;19924;-70
2022/02/18 08:56:19;;;;;;;;;;;24.40;32.60;;;;;;5110478;28;19978;-70
2022/02/18 08:58:46;;;;;;;;;;;24.40;32.50;;;;;;5098948;28;19977;-69
2022/02/18 09:01:13;;;;;;;;;;;24.40;32.40;;;;;;5090373;28;19989;-71
2022/02/18 09:03:40;;;;;;;;;;;24.40;32.30;;;;;;5089602;28;20325;-71
2022/02/18 09:06:08;;;;;;;;;;;24.50;32.40;;;;;;5071191;28;19925;-68
2022/02/18 09:08:36;;;;;;;;;;;24.50;32.40;;;;;;5067706;28;19946;-68
2022/02/18 09:11:04;;;;;;;;;;;24.50;32.30;;;;;;5088815;28;19924;-71
2022/02/18 09:13:31;;;;;;;;;;;24.50;32.40;;;;;;5088905;28;20266;-69
2022/02/18 09:15:58;;;;;;;;;;;24.50;32.50;;;;;;5088998;28;20369;-69
2022/02/18 09:18:25;;;;;;;;;;;24.50;32.40;;;;;;5090308;28;19931;-68
2022/02/18 09:20:52;;;;;;;;;;;24.50;32.50;;;;;;5085562;28;19925;-69
2022/02/18 09:23:19;;;;;;;;;;;24.60;32.60;;;;;;5078460;28;20013;-68
2022/02/18 09:25:46;;;;;;;;;;;24.60;32.40;;;;;;5088044;28;19928;-68
2022/02/18 09:28:13;;;;;;;;;;;24.60;32.40;;;;;;5094720;28;19971;-69
2022/02/18 09:30:43;;;;;;;;;;;24.60;32.10;;;;;;5085751;28;19953;-71
2022/02/18 09:33:15;;;;;;;;;;;24.60;31.80;;;;;;5079934;28;20015;-71
2022/02/18 09:35:42;;;;;;;;;;;24.70;31.70;;;;;;5069324;28;19978;-69
2022/02/18 09:38:10;;;;;;;;;;;24.60;31.60;;;;;;5075942;28;19981;-71
2022/02/18 09:40:37;;;;;;;;;;;24.70;31.60;;;;;;5088433;28;20388;-65
2022/02/18 09:43:05;;;;;;;;;;;24.70;31.70;;;;;;5084300;28;19967;-71
2022/02/18 09:45:32;;;;;;;;;;;24.70;31.70;;;;;;5086669;28;19928;-66
2022/02/18 09:47:59;;;;;;;;;;;24.70;31.90;;;;;;5088523;28;19947;-68
2022/02/18 09:50:26;;;;;;;;;;;24.80;32.20;;;;;;5089266;28;19924;-66
2022/02/18 09:53:13;;;;;;;;;;;24.80;32.30;;;;;;5079046;28;20616;-72
2022/02/18 09:55:41;;;;;;;;;;;24.90;32.40;;;;;;5088762;28;19924;-67
2022/02/18 09:58:08;;;;;;;;;;;24.90;32.50;;;;;;5088737;28;20068;-65
2022/02/18 10:00:38;;;;;;;;;;;24.90;32.50;;;;;;5088826;28;19946;-64
2022/02/18 10:03:07;;;;;;;;;;;25.00;32.60;;;;;;5081901;28;19925;-63
2022/02/18 10:05:34;;;;;;;;;;;25.00;32.60;;;;;;5087151;28;19959;-64
2022/02/18 10:08:06;;;;;;;;;;;25.00;32.60;;;;;;5087009;28;19932;-61
2022/02/18 10:10:33;;;;;;;;;;;25.10;32.60;;;;;;5087662;28;19969;-63
2022/02/18 10:13:01;;;;;;;;;;;25.10;32.50;;;;;;5085599;28;19959;-66
2022/02/18 10:15:28;;;;;;;;;;;25.10;32.50;;;;;;5087121;28;19963;-66
2022/02/18 10:18:00;;;;;;;;;;;25.10;32.40;;;;;;5089069;28;19923;-60
2022/02/18 10:20:28;;;;;;;;;;;25.20;32.40;;;;;;5089640;28;19963;-72
2022/02/18 10:22:59;;;;;;;;;;;25.20;32.30;;;;;;5085013;28;19963;-78
2022/02/18 10:25:27;;;;;;;;;;;25.20;32.30;;;;;;5087061;28;20389;-71
2022/02/18 10:27:55;;;;;;;;;;;25.20;32.30;;;;;;5068879;28;19932;-73
2022/02/18 10:30:22;;;;;;;;;;;25.20;32.20;;;;;;5087801;28;19924;-72
2022/02/18 10:32:50;;;;;;;;;;;25.20;32.20;;;;;;5064032;28;19995;-77
2022/02/18 10:35:18;;;;;;;;;;;25.20;32.10;;;;;;5069741;28;19928;-70
2022/02/18 10:37:53;;;;;;;;;;;25.20;32.10;;;;;;5067939;28;19950;-73
2022/02/18 10:40:21;;;;;;;;;;;25.20;32.10;;;;;;5068034;28;19925;-69
2022/02/18 10:42:52;;;;;;;;;;;25.20;32.20;;;;;;5071645;28;19928;-67
2022/02/18 10:45:23;;;;;;;;;;;25.20;32.20;;;;;;5087264;28;19924;-71
2022/02/18 10:48:04;;;;;;;;;;;25.20;32.00;;;;;;5089147;28;19924;-69
2022/02/18 10:50:31;;;;;;;;;;;25.20;32.00;;;;;;5088966;28;20003;-65
2022/02/18 10:53:12;;;;;;;;;;;25.20;31.90;;;;;;5085695;28;19932;-70
2022/02/18 10:55:50;;;;;;;;;;;25.20;31.80;;;;;;5088074;28;20036;-65
2022/02/18 10:58:21;;;;;;;;;;;25.20;31.60;;;;;;5089512;28;19924;-70
2022/02/18 11:01:00;;;;;;;;;;;25.20;31.50;;;;;;5075675;28;19950;-72
2022/02/18 11:03:28;;;;;;;;;;;25.20;31.50;;;;;;5093235;28;20300;-68
2022/02/18 11:05:55;;;;;;;;;;;25.20;31.30;;;;;;5092341;28;19925;-69
2022/02/18 11:08:28;;;;;;;;;;;25.20;31.20;;;;;;5091374;28;19973;-65
2022/02/18 11:10:56;;;;;;;;;;;25.20;31.20;;;;;;5093261;28;19969;-76
2022/02/18 11:13:23;;;;;;;;;;;25.20;31.20;;;;;;5093510;28;19924;-72
2022/02/18 11:15:51;;;;;;;;;;;25.20;31.20;;;;;;5069484;28;19959;-71
2022/02/18 11:18:18;;;;;;;;;;;25.20;30.90;;;;;;5084334;28;19932;-72
2022/02/18 11:20:46;;;;;;;;;;;25.20;30.80;;;;;;5077733;28;19936;-69
2022/02/18 11:23:13;;;;;;;;;;;25.20;30.70;;;;;;5066826;28;19989;-69
2022/02/18 11:25:41;;;;;;;;;;;25.20;30.60;;;;;;5088265;28;19928;-71
2022/02/18 11:28:09;;;;;;;;;;;25.20;30.80;;;;;;5078432;28;19928;-68
2022/02/18 11:30:39;;;;;;;;;;;25.20;30.90;;;;;;5090249;28;20019;-68
2022/02/18 11:33:26;;;;;;;;;;;25.20;30.90;;;;;;5083531;28;19932;-68
2022/02/18 11:36:06;;;;;;;;;;;25.20;30.90;;;;;;5077030;28;19955;-70
2022/02/18 11:38:42;;;;;;;;;;;25.20;31.10;;;;;;5087831;28;19996;-71
2022/02/18 11:41:17;;;;;;;;;;;25.20;31.20;;;;;;5091810;28;19981;-70
2022/02/18 11:43:45;;;;;;;;;;;25.20;31.20;;;;;;5092948;28;19924;-71
2022/02/18 11:46:20;;;;;;;;;;;25.20;31.20;;;;;;5087898;28;19924;-67
2022/02/18 11:48:49;;;;;;;;;;;25.30;31.30;;;;;;5085276;28;19985;-68
2022/02/18 11:51:21;;;;;;;;;;;25.30;31.20;;;;;;5073278;28;19928;-70
2022/02/18 11:57:22;;;;;;;;;;;25.30;30.50;;;;;;5105200;28;20292;-69
2022/02/18 11:59:57;;;;;;;;;;;25.30;30.10;;;;;;5072520;28;19928;-66
2022/02/18 12:02:41;;;;;;;;;;;25.30;30.00;;;;;;5089842;28;19924;-66
2022/02/18 12:05:12;;;;;;;;;;;25.20;29.80;;;;;;5073709;28;20242;-64
2022/02/18 12:07:47;;;;;;;;;;;25.30;29.80;;;;;;5090995;28;19954;-67
2022/02/18 12:10:23;;;;;;;;;;;25.30;29.80;;;;;;5086059;28;20305;-70
2022/02/18 12:12:51;;;;;;;;;;;25.30;30.00;;;;;;5080424;28;20377;-68
2022/02/18 12:15:25;;;;;;;;;;;25.30;30.20;;;;;;5088858;28;20053;-68
2022/02/18 12:17:57;;;;;;;;;;;25.30;30.20;;;;;;5083666;28;20380;-70
2022/02/18 12:20:26;;;;;;;;;;;25.20;30.30;;;;;;5066519;28;19924;-68
2022/02/18 12:22:54;;;;;;;;;;;25.30;30.20;;;;;;5084426;28;19928;-72
2022/02/18 12:25:26;;;;;;;;;;;25.30;30.40;;;;;;5088644;28;19924;-69
2022/02/18 12:27:55;;;;;;;;;;;25.30;30.50;;;;;;5074369;28;19928;-67
2022/02/18 12:30:36;;;;;;;;;;;25.30;30.60;;;;;;5078019;28;20568;-67
2022/02/18 12:33:03;;;;;;;;;;;25.30;30.70;;;;;;5084392;28;19924;-67
2022/02/18 12:35:34;;;;;;;;;;;25.40;30.90;;;;;;5086459;28;20315;-68
2022/02/18 12:38:02;;;;;;;;;;;25.40;30.80;;;;;;5083097;28;19928;-67
2022/02/18 12:40:32;;;;;;;;;;;25.40;30.80;;;;;;5085757;28;19932;-68
2022/02/18 12:43:08;;;;;;;;;;;25.40;30.70;;;;;;5065867;28;19927;-70
2022/02/18 12:45:40;;;;;;;;;;;25.50;30.60;;;;;;5086480;28;20009;-69
2022/02/18 12:48:07;;;;;;;;;;;25.50;30.80;;;;;;5074760;28;19985;-69
2022/02/18 12:50:37;;;;;;;;;;;25.60;30.80;;;;;;5083951;28;19935;-76
2022/02/18 12:53:04;;;;;;;;;;;25.60;30.70;;;;;;5070799;28;20407;-72
2022/02/18 12:55:33;;;;;;;;;;;25.70;30.70;;;;;;5088312;28;19985;-70
2022/02/18 12:58:01;;;;;;;;;;;25.70;30.60;;;;;;5083112;28;19963;-66
2022/02/18 13:00:28;;;;;;;;;;;25.70;30.60;;;;;;5085089;28;19989;-66
2022/02/18 13:03:00;;;;;;;;;;;25.70;30.60;;;;;;5085113;28;19936;-75
2022/02/18 13:05:29;;;;;;;;;;;25.70;30.60;;;;;;5089964;28;20011;-69
2022/02/18 13:07:58;;;;;;;;;;;25.80;30.40;;;;;;5087147;28;19928;-67
2022/02/18 13:10:29;;;;;;;;;;;25.80;30.40;;;;;;5074397;28;19928;-68
2022/02/18 13:12:56;;;;;;;;;;;25.80;30.30;;;;;;5079379;28;20373;-70
2022/02/18 13:15:24;;;;;;;;;;;25.80;30.10;;;;;;5105738;28;19927;-68
2022/02/18 13:17:53;;;;;;;;;;;25.80;30.00;;;;;;5091048;28;19928;-73
2022/02/18 13:20:32;;;;;;;;;;;25.80;30.00;;;;;;5080732;28;20642;-75
2022/02/18 13:23:05;;;;;;;;;;;25.80;30.00;;;;;;5083547;28;19924;-75
2022/02/18 13:25:37;;;;;;;;;;;25.80;29.90;;;;;;5091104;28;20313;-75
2022/02/18 13:28:07;;;;;;;;;;;25.80;29.90;;;;;;5094941;28;20442;-75
2022/02/18 13:30:35;;;;;;;;;;;25.70;29.80;;;;;;5094910;28;20272;-73
2022/02/18 13:33:06;;;;;;;;;;;25.70;29.70;;;;;;5076959;28;19968;-73
2022/02/18 13:35:37;;;;;;;;;;;25.70;29.60;;;;;;5087662;28;19928;-73
2022/02/18 13:38:15;;;;;;;;;;;25.70;29.60;;;;;;5081886;28;19985;-72
2022/02/18 13:40:42;;;;;;;;;;;25.70;29.60;;;;;;5073599;28;20009;-72
2022/02/18 13:43:09;;;;;;;;;;;25.70;29.60;;;;;;5087995;28;19931;-72
2022/02/18 13:52:20;;;;;;;;;;;25.70;29.50;;;;;;5088111;28;20467;-72
2022/02/18 13:54:49;;;;;;;;;;;25.70;29.40;;;;;;5094475;28;20399;-72
2022/02/18 13:57:20;;;;;;;;;;;25.60;29.40;;;;;;5086078;28;19928;-71
2022/02/18 13:59:49;;;;;;;;;;;25.60;29.60;;;;;;5088332;28;20035;-70
2022/02/18 14:02:18;;;;;;;;;;;25.60;29.60;;;;;;5086268;28;19924;-69
2022/02/18 14:04:46;;;;;;;;;;;25.60;29.60;;;;;;5088519;28;20203;-66
2022/02/18 14:07:15;;;;;;;;;;;25.50;29.50;;;;;;5087870;28;19928;-80
2022/02/18 14:09:43;;;;;;;;;;;25.50;29.70;;;;;;5106752;28;19976;-72
2022/02/18 14:12:12;;;;;;;;;;;25.50;30.00;;;;;;5105578;28;20403;-69
2022/02/18 14:14:39;;;;;;;;;;;25.50;31.00;;;;;;5108451;28;19924;-77
2022/02/18 14:17:06;;;;;;;;;;;25.50;31.70;;;;;;5107559;28;19977;-71
2022/02/18 14:19:44;;;;;;;;;;;25.40;31.90;;;;;;5088388;28;20104;-69
2022/02/18 14:22:13;;;;;;;;;;;25.40;32.00;;;;;;5086977;28;19924;-72
2022/02/18 14:24:41;;;;;;;;;;;25.40;31.80;;;;;;5088762;28;19924;-71
2022/02/18 14:27:12;;;;;;;;;;;25.40;31.60;;;;;;5086844;28;20018;-71
2022/02/18 14:29:55;;;;;;;;;;;25.40;31.30;;;;;;5088396;28;19971;-71
2022/02/18 14:32:29;;;;;;;;;;;25.40;31.10;;;;;;5086332;28;20022;-71
2022/02/18 14:35:00;;;;;;;;;;;25.40;31.00;;;;;;5088542;28;19931;-71
2022/02/18 14:37:28;;;;;;;;;;;25.30;30.90;;;;;;5102083;28;19924;-70
2022/02/18 14:39:55;;;;;;;;;;;25.40;31.30;;;;;;5088004;28;19981;-71
2022/02/18 14:42:30;;;;;;;;;;;25.30;31.10;;;;;;5086885;28;19970;-71
2022/02/18 14:45:00;;;;;;;;;;;25.30;31.10;;;;;;5088692;28;19924;-70
2022/02/18 14:47:28;;;;;;;;;;;25.30;31.00;;;;;;5086235;28;20140;-70
2022/02/18 14:49:57;;;;;;;;;;;25.30;30.80;;;;;;5088270;28;19924;-70
2022/02/18 14:52:25;;;;;;;;;;;25.30;30.60;;;;;;5086110;28;20453;-71
2022/02/18 14:54:53;;;;;;;;;;;25.30;30.50;;;;;;5070773;28;19928;-71
2022/02/18 14:57:21;;;;;;;;;;;25.30;30.40;;;;;;5086432;28;19932;-70
2022/02/18 14:59:49;;;;;;;;;;;25.20;30.20;;;;;;5088072;28;19986;-71
2022/02/18 15:02:16;;;;;;;;;;;25.20;30.10;;;;;;5086412;28;20384;-71